Terminal Aerodrome Forecast
Issued by NWS Houston/Galveston TX

Home | Current Version | Previous Version | Text Only | Print | Product List | Glossary On
Versions: 1 2 3 4 5 6 7 8 9 10 11 12 13 14 15 16 17 18 19 20 21 22 23 24 25 26 27 28 29 30 31 32 33 34 35 36 37 38 39 40 41 42 43 44 45 46 47 48 49 50
000
FTUS44 KHGX 202057 AAB
TAFHOU
TAF AMD
KHOU 202057Z 2021/2118 19010KT P6SM VCSH SCT015 BKN025
     FM210000 16008KT 6SM BR VCSH OVC007
     FM210400 16008KT 2SM BR VCSH OVC003
     FM211600 17012KT P6SM SCT003 BKN010=

USA.gov is the U.S. government's official web portal to all federal, state and local government web resources and services.